sensor_id;sensor_type;location;lat;lon;timestamp;pressure;altitude;pressure_sealevel;temperature;humidity
46394;BME280;32099;53.588;10.176;2023-05-07T00:00:36;101824.44;;;9.85;78.79
46394;BME280;32099;53.588;10.176;2023-05-07T00:03:01;101825.75;;;9.81;78.38
46394;BME280;32099;53.588;10.176;2023-05-07T00:05:27;101825.63;;;9.82;78.27
46394;BME280;32099;53.588;10.176;2023-05-07T00:07:52;101827.63;;;9.80;78.36
46394;BME280;32099;53.588;10.176;2023-05-07T00:10:18;101826.91;;;9.78;79.37
46394;BME280;32099;53.588;10.176;2023-05-07T00:12:44;101834.09;;;9.79;79.09
46394;BME280;32099;53.588;10.176;2023-05-07T00:15:09;101835.66;;;9.82;78.31
46394;BME280;32099;53.588;10.176;2023-05-07T00:17:35;101830.19;;;9.82;78.42
46394;BME280;32099;53.588;10.176;2023-05-07T00:20:02;101827.75;;;9.79;78.56
46394;BME280;32099;53.588;10.176;2023-05-07T00:22:28;101822.94;;;9.72;78.54
46394;BME280;32099;53.588;10.176;2023-05-07T00:24:55;101825.09;;;9.69;78.51
46394;BME280;32099;53.588;10.176;2023-05-07T00:27:20;101824.69;;;9.64;79.31
46394;BME280;32099;53.588;10.176;2023-05-07T00:29:46;101823.44;;;9.58;78.08
46394;BME280;32099;53.588;10.176;2023-05-07T00:32:11;101828.31;;;9.54;79.17
46394;BME280;32099;53.588;10.176;2023-05-07T00:34:36;101834.38;;;9.48;78.86
46394;BME280;32099;53.588;10.176;2023-05-07T00:37:01;101825.34;;;9.48;79.96
46394;BME280;32099;53.588;10.176;2023-05-07T00:39:27;101838.50;;;9.52;79.22
46394;BME280;32099;53.588;10.176;2023-05-07T00:41:52;101825.19;;;9.49;79.28
46394;BME280;32099;53.588;10.176;2023-05-07T00:44:17;101828.06;;;9.48;79.58
46394;BME280;32099;53.588;10.176;2023-05-07T00:46:43;101823.78;;;9.45;79.62
46394;BME280;32099;53.588;10.176;2023-05-07T00:49:09;101830.06;;;9.46;79.00
46394;BME280;32099;53.588;10.176;2023-05-07T00:51:35;101829.94;;;9.47;79.04
46394;BME280;32099;53.588;10.176;2023-05-07T00:54:01;101821.44;;;9.50;79.19
46394;BME280;32099;53.588;10.176;2023-05-07T00:56:27;101814.16;;;9.51;79.08
46394;BME280;32099;53.588;10.176;2023-05-07T00:58:53;101818.97;;;9.57;78.60
46394;BME280;32099;53.588;10.176;2023-05-07T01:01:18;101816.25;;;9.57;79.45
46394;BME280;32099;53.588;10.176;2023-05-07T01:03:44;101813.97;;;9.62;78.71
46394;BME280;32099;53.588;10.176;2023-05-07T01:06:09;101815.22;;;9.68;79.04
46394;BME280;32099;53.588;10.176;2023-05-07T01:08:37;101815.06;;;9.69;78.28
46394;BME280;32099;53.588;10.176;2023-05-07T01:11:04;101820.94;;;9.75;78.52
46394;BME280;32099;53.588;10.176;2023-05-07T01:13:31;101818.19;;;9.75;78.71
46394;BME280;32099;53.588;10.176;2023-05-07T01:15:57;101815.22;;;9.68;78.66
46394;BME280;32099;53.588;10.176;2023-05-07T01:18:22;101813.97;;;9.62;79.01
46394;BME280;32099;53.588;10.176;2023-05-07T01:20:48;101811.38;;;9.61;78.85
46394;BME280;32099;53.588;10.176;2023-05-07T01:23:13;101818.84;;;9.59;79.34
46394;BME280;32099;53.588;10.176;2023-05-07T01:25:40;101816.13;;;9.59;78.69
46394;BME280;32099;53.588;10.176;2023-05-07T01:28:05;101816.06;;;9.68;78.72
46394;BME280;32099;53.588;10.176;2023-05-07T01:30:31;101822.38;;;9.69;78.50
46394;BME280;32099;53.588;10.176;2023-05-07T01:33:04;101812.25;;;9.61;79.15
46394;BME280;32099;53.588;10.176;2023-05-07T01:35:35;101820.00;;;9.56;79.67
46394;BME280;32099;53.588;10.176;2023-05-07T01:38:03;101808.53;;;9.52;78.80
46394;BME280;32099;53.588;10.176;2023-05-07T01:40:31;101799.81;;;9.49;79.18
46394;BME280;32099;53.588;10.176;2023-05-07T01:42:56;101808.72;;;9.51;78.73
46394;BME280;32099;53.588;10.176;2023-05-07T01:45:21;101810.69;;;9.59;78.99
46394;BME280;32099;53.588;10.176;2023-05-07T01:47:48;101806.50;;;9.64;78.48
46394;BME280;32099;53.588;10.176;2023-05-07T01:50:14;101802.31;;;9.70;78.52
46394;BME280;32099;53.588;10.176;2023-05-07T01:52:41;101812.88;;;9.73;78.47
46394;BME280;32099;53.588;10.176;2023-05-07T01:55:07;101810.63;;;9.68;78.37
46394;BME280;32099;53.588;10.176;2023-05-07T01:57:32;101802.06;;;9.63;78.87
46394;BME280;32099;53.588;10.176;2023-05-07T01:59:58;101809.06;;;9.66;78.16
46394;BME280;32099;53.588;10.176;2023-05-07T02:02:23;101811.63;;;9.67;78.44
46394;BME280;32099;53.588;10.176;2023-05-07T02:04:48;101816.06;;;9.68;78.65
46394;BME280;32099;53.588;10.176;2023-05-07T02:07:14;101813.03;;;9.71;78.97
46394;BME280;32099;53.588;10.176;2023-05-07T02:09:39;101810.50;;;9.70;79.02
46394;BME280;32099;53.588;10.176;2023-05-07T02:12:04;101817.53;;;9.63;78.33
46394;BME280;32099;53.588;10.176;2023-05-07T02:14:30;101819.84;;;9.57;78.89
46394;BME280;32099;53.588;10.176;2023-05-07T02:16:55;101826.69;;;9.62;78.64
46394;BME280;32099;53.588;10.176;2023-05-07T02:19:20;101820.56;;;9.60;79.01
46394;BME280;32099;53.588;10.176;2023-05-07T02:21:46;101823.72;;;9.55;79.21
46394;BME280;32099;53.588;10.176;2023-05-07T02:24:11;101826.75;;;9.52;79.54
46394;BME280;32099;53.588;10.176;2023-05-07T02:26:37;101832.03;;;9.53;79.39
46394;BME280;32099;53.588;10.176;2023-05-07T02:29:02;101829.16;;;9.55;79.43
46394;BME280;32099;53.588;10.176;2023-05-07T02:31:27;101820.69;;;9.58;79.36
46394;BME280;32099;53.588;10.176;2023-05-07T02:33:53;101823.44;;;9.58;79.29
46394;BME280;32099;53.588;10.176;2023-05-07T02:36:18;101842.19;;;9.61;79.02
46394;BME280;32099;53.588;10.176;2023-05-07T02:38:43;101825.31;;;9.57;78.90
46394;BME280;32099;53.588;10.176;2023-05-07T02:41:09;101837.03;;;9.58;79.17
46394;BME280;32099;53.588;10.176;2023-05-07T02:43:34;101838.22;;;9.55;79.64
46394;BME280;32099;53.588;10.176;2023-05-07T02:46:00;101839.06;;;9.56;79.04
46394;BME280;32099;53.588;10.176;2023-05-07T02:48:26;101840.06;;;9.55;79.53
46394;BME280;32099;53.588;10.176;2023-05-07T02:50:52;101842.38;;;9.50;79.83
46394;BME280;32099;53.588;10.176;2023-05-07T02:53:17;101846.41;;;9.46;79.36
46394;BME280;32099;53.588;10.176;2023-05-07T02:55:42;101850.28;;;9.43;80.04
46394;BME280;32099;53.588;10.176;2023-05-07T02:58:07;101839.56;;;9.41;79.54
46394;BME280;32099;53.588;10.176;2023-05-07T03:00:33;101842.84;;;9.45;79.09
46394;BME280;32099;53.588;10.176;2023-05-07T03:02:58;101845.69;;;9.44;78.79
46394;BME280;32099;53.588;10.176;2023-05-07T03:05:23;101844.84;;;9.43;78.76
46394;BME280;32099;53.588;10.176;2023-05-07T03:07:49;101841.13;;;9.44;78.67
46394;BME280;32099;53.588;10.176;2023-05-07T03:10:14;101847.66;;;9.51;77.90
46394;BME280;32099;53.588;10.176;2023-05-07T03:12:40;101843.09;;;9.52;78.65
46394;BME280;32099;53.588;10.176;2023-05-07T03:15:05;101841.94;;;9.54;78.42
46394;BME280;32099;53.588;10.176;2023-05-07T03:17:31;101841.78;;;9.56;78.67
46394;BME280;32099;53.588;10.176;2023-05-07T03:19:56;101845.38;;;9.56;78.05
46394;BME280;32099;53.588;10.176;2023-05-07T03:22:21;101839.75;;;9.58;78.27
46394;BME280;32099;53.588;10.176;2023-05-07T03:24:47;101850.09;;;9.54;78.87
46394;BME280;32099;53.588;10.176;2023-05-07T03:27:12;101844.94;;;9.51;78.69
46394;BME280;32099;53.588;10.176;2023-05-07T03:29:37;101846.84;;;9.51;78.60
46394;BME280;32099;53.588;10.176;2023-05-07T03:32:03;101841.94;;;9.54;78.40
46394;BME280;32099;53.588;10.176;2023-05-07T03:34:28;101839.75;;;9.58;78.03
46394;BME280;32099;53.588;10.176;2023-05-07T03:36:53;101843.50;;;9.57;77.40
46394;BME280;32099;53.588;10.176;2023-05-07T03:39:19;101844.38;;;9.57;77.98
46394;BME280;32099;53.588;10.176;2023-05-07T03:41:44;101855.38;;;9.56;77.80
46394;BME280;32099;53.588;10.176;2023-05-07T03:44:09;101850.94;;;9.55;78.00
46394;BME280;32099;53.588;10.176;2023-05-07T03:46:34;101846.38;;;9.55;77.64
46394;BME280;32099;53.588;10.176;2023-05-07T03:49:00;101852.38;;;9.59;78.04
46394;BME280;32099;53.588;10.176;2023-05-07T03:51:25;101849.25;;;9.54;78.04
46394;BME280;32099;53.588;10.176;2023-05-07T03:53:51;101846.97;;;9.49;77.84
46394;BME280;32099;53.588;10.176;2023-05-07T03:56:21;101849.56;;;9.51;77.90
46394;BME280;32099;53.588;10.176;2023-05-07T03:58:47;101860.84;;;9.56;77.86
46394;BME280;32099;53.588;10.176;2023-05-07T04:01:12;101856.28;;;9.56;77.96
46394;BME280;32099;53.588;10.176;2023-05-07T04:03:37;101859.84;;;9.57;77.44
46394;BME280;32099;53.588;10.176;2023-05-07T04:06:03;101851.38;;;9.60;78.31
46394;BME280;32099;53.588;10.176;2023-05-07T04:08:28;101852.38;;;9.59;77.83
46394;BME280;32099;53.588;10.176;2023-05-07T04:10:54;101855.56;;;9.54;77.80
46394;BME280;32099;53.588;10.176;2023-05-07T04:13:20;101864.44;;;9.56;77.76
46394;BME280;32099;53.588;10.176;2023-05-07T04:15:45;101865.28;;;9.57;77.74
46394;BME280;32099;53.588;10.176;2023-05-07T04:18:11;101862.56;;;9.57;78.34
46394;BME280;32099;53.588;10.176;2023-05-07T04:20:36;101864.28;;;9.58;77.91
46394;BME280;32099;53.588;10.176;2023-05-07T04:23:01;101861.00;;;9.54;78.27
46394;BME280;32099;53.588;10.176;2023-05-07T04:25:27;101857.56;;;9.52;78.73
46394;BME280;32099;53.588;10.176;2023-05-07T04:27:52;101857.84;;;9.49;77.78
46394;BME280;32099;53.588;10.176;2023-05-07T04:30:17;101868.31;;;9.54;78.58
46394;BME280;32099;53.588;10.176;2023-05-07T04:32:43;101874.44;;;9.56;77.95
46394;BME280;32099;53.588;10.176;2023-05-07T04:35:09;101875.16;;;9.58;77.90
46394;BME280;32099;53.588;10.176;2023-05-07T04:37:34;101875.16;;;9.58;77.73
46394;BME280;32099;53.588;10.176;2023-05-07T04:40:00;101866.44;;;9.54;77.77
46394;BME280;32099;53.588;10.176;2023-05-07T04:42:27;101868.72;;;9.59;78.14
46394;BME280;32099;53.588;10.176;2023-05-07T04:44:53;101865.25;;;9.67;77.16
46394;BME280;32099;53.588;10.176;2023-05-07T04:47:18;101868.53;;;9.70;77.03
46394;BME280;32099;53.588;10.176;2023-05-07T04:49:44;101876.56;;;9.72;76.88
46394;BME280;32099;53.588;10.176;2023-05-07T04:52:09;101869.41;;;9.71;77.20
46394;BME280;32099;53.588;10.176;2023-05-07T04:54:34;101871.97;;;9.72;77.23
46394;BME280;32099;53.588;10.176;2023-05-07T04:57:00;101875.25;;;9.76;77.29
46394;BME280;32099;53.588;10.176;2023-05-07T04:59:25;101874.78;;;9.81;76.33
46394;BME280;32099;53.588;10.176;2023-05-07T05:01:50;101877.38;;;9.82;75.70
46394;BME280;32099;53.588;10.176;2023-05-07T05:04:16;101885.84;;;9.79;76.63
46394;BME280;32099;53.588;10.176;2023-05-07T05:06:41;101883.28;;;9.78;76.39
46394;BME280;32099;53.588;10.176;2023-05-07T05:09:06;101890.13;;;9.82;76.85
46394;BME280;32099;53.588;10.176;2023-05-07T05:11:31;101893.84;;;9.81;76.35
46394;BME280;32099;53.588;10.176;2023-05-07T05:13:58;101893.72;;;9.82;76.08
46394;BME280;32099;53.588;10.176;2023-05-07T05:16:24;101889.28;;;9.81;76.71
46394;BME280;32099;53.588;10.176;2023-05-07T05:18:49;101900.31;;;9.80;75.96
46394;BME280;32099;53.588;10.176;2023-05-07T05:21:16;101904.91;;;9.79;76.86
46394;BME280;32099;53.588;10.176;2023-05-07T05:23:42;101905.19;;;9.76;77.01
46394;BME280;32099;53.588;10.176;2023-05-07T05:26:07;101905.19;;;9.76;77.25
46394;BME280;32099;53.588;10.176;2023-05-07T05:28:33;101900.31;;;9.80;76.33
46394;BME280;32099;53.588;10.176;2023-05-07T05:30:58;101898.59;;;9.79;76.46
46394;BME280;32099;53.588;10.176;2023-05-07T05:33:23;101890.56;;;9.77;76.48
46394;BME280;32099;53.588;10.176;2023-05-07T05:35:49;101893.72;;;9.82;76.86
46394;BME280;32099;53.588;10.176;2023-05-07T05:38:15;101894.28;;;9.86;76.62
46394;BME280;32099;53.588;10.176;2023-05-07T05:40:40;101894.72;;;9.81;77.27
46394;BME280;32099;53.588;10.176;2023-05-07T05:43:05;101898.47;;;9.80;76.51
46394;BME280;32099;53.588;10.176;2023-05-07T05:45:31;101894.28;;;9.86;77.05
46394;BME280;32099;53.588;10.176;2023-05-07T05:47:56;101894.53;;;9.93;76.18
46394;BME280;32099;53.588;10.176;2023-05-07T05:50:22;101900.00;;;9.93;76.36
46394;BME280;32099;53.588;10.176;2023-05-07T05:52:47;101892.19;;;9.98;76.00
46394;BME280;32099;53.588;10.176;2023-05-07T05:55:13;101901.19;;;10.08;76.45
46394;BME280;32099;53.588;10.176;2023-05-07T05:57:38;101905.59;;;10.19;75.68
46394;BME280;32099;53.588;10.176;2023-05-07T06:00:03;101907.84;;;10.24;75.26
46394;BME280;32099;53.588;10.176;2023-05-07T06:02:29;101900.38;;;10.26;75.22
46394;BME280;32099;53.588;10.176;2023-05-07T06:04:54;101897.34;;;10.29;75.62
46394;BME280;32099;53.588;10.176;2023-05-07T06:07:20;101904.06;;;10.34;75.20
46394;BME280;32099;53.588;10.176;2023-05-07T06:09:45;101899.47;;;10.35;74.85
46394;BME280;32099;53.588;10.176;2023-05-07T06:12:11;101911.38;;;10.34;74.88
46394;BME280;32099;53.588;10.176;2023-05-07T06:14:36;101914.81;;;10.36;74.98
46394;BME280;32099;53.588;10.176;2023-05-07T06:17:02;101916.81;;;10.34;75.14
46394;BME280;32099;53.588;10.176;2023-05-07T06:19:27;101911.22;;;10.35;75.12
46394;BME280;32099;53.588;10.176;2023-05-07T06:21:53;101921.56;;;10.32;75.52
46394;BME280;32099;53.588;10.176;2023-05-07T06:24:18;101920.72;;;10.31;75.19
46394;BME280;32099;53.588;10.176;2023-05-07T06:26:43;101933.47;;;10.31;75.13
46394;BME280;32099;53.588;10.176;2023-05-07T06:29:09;101924.75;;;10.27;74.78
46394;BME280;32099;53.588;10.176;2023-05-07T06:31:34;101927.47;;;10.27;75.10
46394;BME280;32099;53.588;10.176;2023-05-07T06:33:59;101922.28;;;10.34;75.02
46394;BME280;32099;53.588;10.176;2023-05-07T06:36:26;101925.88;;;10.34;75.09
46394;BME280;32099;53.588;10.176;2023-05-07T06:38:52;101927.91;;;10.32;74.91
46394;BME280;32099;53.588;10.176;2023-05-07T06:41:17;101925.81;;;10.44;74.87
46394;BME280;32099;53.588;10.176;2023-05-07T06:43:42;101923.19;;;10.53;74.11
46394;BME280;32099;53.588;10.176;2023-05-07T06:46:08;101920.63;;;10.51;74.10
46394;BME280;32099;53.588;10.176;2023-05-07T06:48:33;101919.16;;;10.57;74.29
46394;BME280;32099;53.588;10.176;2023-05-07T06:50:58;101911.44;;;10.52;73.65
46394;BME280;32099;53.588;10.176;2023-05-07T06:53:24;101921.34;;;10.53;74.23
46394;BME280;32099;53.588;10.176;2023-05-07T06:55:50;101928.19;;;10.57;74.25
46394;BME280;32099;53.588;10.176;2023-05-07T06:58:16;101932.03;;;10.64;73.88
46394;BME280;32099;53.588;10.176;2023-05-07T07:00:42;101931.84;;;10.66;73.79
46394;BME280;32099;53.588;10.176;2023-05-07T07:03:07;101938.31;;;10.65;73.60
46394;BME280;32099;53.588;10.176;2023-05-07T07:05:32;101928.66;;;10.71;74.11
46394;BME280;32099;53.588;10.176;2023-05-07T07:07:58;101934.22;;;10.79;73.43
46394;BME280;32099;53.588;10.176;2023-05-07T07:10:23;101927.81;;;10.88;73.93
46394;BME280;32099;53.588;10.176;2023-05-07T07:12:48;101923.59;;;10.94;72.61
46394;BME280;32099;53.588;10.176;2023-05-07T07:15:14;101932.63;;;10.94;72.84
46394;BME280;32099;53.588;10.176;2023-05-07T07:17:40;101931.78;;;10.94;72.68
46394;BME280;32099;53.588;10.176;2023-05-07T07:20:06;101934.06;;;10.99;72.66
46394;BME280;32099;53.588;10.176;2023-05-07T07:22:31;101932.41;;;11.06;72.63
46394;BME280;32099;53.588;10.176;2023-05-07T07:24:57;101933.97;;;11.08;72.47
46394;BME280;32099;53.588;10.176;2023-05-07T07:27:22;101936.84;;;11.07;72.33
46394;BME280;32099;53.588;10.176;2023-05-07T07:29:47;101931.72;;;11.04;72.71
46394;BME280;32099;53.588;10.176;2023-05-07T07:32:12;101938.03;;;11.04;72.72
46394;BME280;32099;53.588;10.176;2023-05-07T07:34:38;101939.97;;;11.12;72.78
46394;BME280;32099;53.588;10.176;2023-05-07T07:37:03;101922.81;;;11.20;72.85
46394;BME280;32099;53.588;10.176;2023-05-07T07:39:31;101934.41;;;11.22;72.29
46394;BME280;32099;53.588;10.176;2023-05-07T07:41:57;101924.66;;;11.19;72.45
46394;BME280;32099;53.588;10.176;2023-05-07T07:44:22;101935.22;;;11.14;72.09
46394;BME280;32099;53.588;10.176;2023-05-07T07:46:47;101930.06;;;11.11;72.29
46394;BME280;32099;53.588;10.176;2023-05-07T07:49:12;101933.34;;;11.15;71.93
46394;BME280;32099;53.588;10.176;2023-05-07T07:51:38;101928.88;;;11.14;71.61
46394;BME280;32099;53.588;10.176;2023-05-07T07:54:03;101937.53;;;11.09;71.90
46394;BME280;32099;53.588;10.176;2023-05-07T07:56:29;101941.75;;;11.03;72.32
46394;BME280;32099;53.588;10.176;2023-05-07T07:58:54;101948.09;;;11.04;72.18
46394;BME280;32099;53.588;10.176;2023-05-07T08:01:19;101953.09;;;11.08;72.12
46394;BME280;32099;53.588;10.176;2023-05-07T08:03:45;101951.19;;;11.09;72.05
46394;BME280;32099;53.588;10.176;2023-05-07T08:06:10;101955.66;;;11.10;71.96
46394;BME280;32099;53.588;10.176;2023-05-07T08:08:35;101952.06;;;11.09;71.54
46394;BME280;32099;53.588;10.176;2023-05-07T08:11:01;101950.19;;;11.10;71.89
46394;BME280;32099;53.588;10.176;2023-05-07T08:13:26;101949.47;;;11.08;71.60
46394;BME280;32099;53.588;10.176;2023-05-07T08:15:51;101947.69;;;11.17;71.60
46394;BME280;32099;53.588;10.176;2023-05-07T08:18:17;101948.63;;;11.25;70.91
46394;BME280;32099;53.588;10.176;2023-05-07T08:20:42;101961.44;;;11.33;70.74
46394;BME280;32099;53.588;10.176;2023-05-07T08:23:08;101956.78;;;11.44;71.69
46394;BME280;32099;53.588;10.176;2023-05-07T08:25:33;101962.13;;;11.53;71.15
46394;BME280;32099;53.588;10.176;2023-05-07T08:27:59;101963.00;;;11.54;71.18
46394;BME280;32099;53.588;10.176;2023-05-07T08:30:24;101959.47;;;11.62;71.05
46394;BME280;32099;53.588;10.176;2023-05-07T08:32:50;101953.13;;;11.61;70.61
46394;BME280;32099;53.588;10.176;2023-05-07T08:35:15;101957.63;;;11.70;71.28
46394;BME280;32099;53.588;10.176;2023-05-07T08:37:40;101964.72;;;11.81;70.93
46394;BME280;32099;53.588;10.176;2023-05-07T08:40:06;101966.44;;;11.82;70.68
46394;BME280;32099;53.588;10.176;2023-05-07T08:42:32;101971.19;;;11.80;70.40
46394;BME280;32099;53.588;10.176;2023-05-07T08:45:01;101968.16;;;11.83;70.93
46394;BME280;32099;53.588;10.176;2023-05-07T08:47:32;101964.94;;;11.88;69.89
46394;BME280;32099;53.588;10.176;2023-05-07T08:50:03;101965.78;;;11.88;70.19
46394;BME280;32099;53.588;10.176;2023-05-07T08:52:30;101971.22;;;11.88;69.53
46394;BME280;32099;53.588;10.176;2023-05-07T08:54:56;101973.75;;;11.82;69.62
46394;BME280;32099;53.588;10.176;2023-05-07T08:57:21;101978.91;;;11.85;70.50
46394;BME280;32099;53.588;10.176;2023-05-07T08:59:48;101972.78;;;11.91;69.65
46394;BME280;32099;53.588;10.176;2023-05-07T09:02:13;101982.03;;;11.90;69.49
46394;BME280;32099;53.588;10.176;2023-05-07T09:04:39;101982.03;;;11.90;69.45
46394;BME280;32099;53.588;10.176;2023-05-07T09:07:04;101986.94;;;11.86;70.00
46394;BME280;32099;53.588;10.176;2023-05-07T09:09:31;101984.09;;;11.96;69.49
46394;BME280;32099;53.588;10.176;2023-05-07T09:11:57;101980.09;;;12.09;70.04
46394;BME280;32099;53.588;10.176;2023-05-07T09:14:27;101991.28;;;12.24;70.00
46394;BME280;32099;53.588;10.176;2023-05-07T09:16:52;101993.03;;;12.33;69.24
46394;BME280;32099;53.588;10.176;2023-05-07T09:19:22;101999.72;;;12.39;68.62
46394;BME280;32099;53.588;10.176;2023-05-07T09:21:57;101994.94;;;12.41;67.75
46394;BME280;32099;53.588;10.176;2023-05-07T09:24:24;102000.25;;;12.42;68.06
46394;BME280;32099;53.588;10.176;2023-05-07T09:26:49;101990.69;;;12.46;68.22
46394;BME280;32099;53.588;10.176;2023-05-07T09:29:15;101994.63;;;12.52;68.58
46394;BME280;32099;53.588;10.176;2023-05-07T09:31:40;102000.47;;;12.57;68.42
46394;BME280;32099;53.588;10.176;2023-05-07T09:34:06;101999.31;;;12.68;68.00
46394;BME280;32099;53.588;10.176;2023-05-07T09:36:31;101997.25;;;12.62;67.20
46394;BME280;32099;53.588;10.176;2023-05-07T09:38:59;101990.38;;;12.58;68.30
46394;BME280;32099;53.588;10.176;2023-05-07T09:41:25;102008.19;;;12.54;67.37
46394;BME280;32099;53.588;10.176;2023-05-07T09:43:54;102000.28;;;12.50;67.59
46394;BME280;32099;53.588;10.176;2023-05-07T09:46:19;101994.81;;;12.50;67.63
46394;BME280;32099;53.588;10.176;2023-05-07T09:48:52;101991.19;;;12.50;67.45
46394;BME280;32099;53.588;10.176;2023-05-07T09:51:23;102001.00;;;12.61;67.59
46394;BME280;32099;53.588;10.176;2023-05-07T09:53:52;101996.25;;;12.71;68.67
46394;BME280;32099;53.588;10.176;2023-05-07T09:56:18;101999.81;;;12.72;67.80
46394;BME280;32099;53.588;10.176;2023-05-07T09:58:45;102001.91;;;12.70;67.88
46394;BME280;32099;53.588;10.176;2023-05-07T10:01:12;101994.53;;;12.70;67.70
46394;BME280;32099;53.588;10.176;2023-05-07T10:03:39;101994.72;;;12.77;67.45
46394;BME280;32099;53.588;10.176;2023-05-07T10:06:06;102001.72;;;12.79;66.82
46394;BME280;32099;53.588;10.176;2023-05-07T10:08:33;102003.50;;;13.05;67.50
46394;BME280;32099;53.588;10.176;2023-05-07T10:11:00;101998.72;;;13.24;67.12
46394;BME280;32099;53.588;10.176;2023-05-07T10:13:26;102007.47;;;13.36;66.54
46394;BME280;32099;53.588;10.176;2023-05-07T10:15:52;101998.03;;;13.38;65.93
46394;BME280;32099;53.588;10.176;2023-05-07T10:18:18;102002.00;;;13.52;66.89
46394;BME280;32099;53.588;10.176;2023-05-07T10:20:48;101997.34;;;13.69;66.29
46394;BME280;32099;53.588;10.176;2023-05-07T10:23:17;101995.69;;;13.68;64.76
46394;BME280;32099;53.588;10.176;2023-05-07T10:25:48;101999.28;;;13.61;65.19
46394;BME280;32099;53.588;10.176;2023-05-07T10:28:13;101996.53;;;13.61;64.39
46394;BME280;32099;53.588;10.176;2023-05-07T10:33:26;102000.47;;;13.66;65.28
46394;BME280;32099;53.588;10.176;2023-05-07T10:35:55;102001.28;;;13.75;65.08
46394;BME280;32099;53.588;10.176;2023-05-07T10:38:24;102004.88;;;13.84;64.26
46394;BME280;32099;53.588;10.176;2023-05-07T10:40:50;102000.63;;;13.73;62.78
46394;BME280;32099;53.588;10.176;2023-05-07T10:43:16;101998.22;;;13.70;64.98
46394;BME280;32099;53.588;10.176;2023-05-07T10:45:41;101999.41;;;13.76;64.75
46394;BME280;32099;53.588;10.176;2023-05-07T10:50:35;102001.44;;;13.98;65.39
46394;BME280;32099;53.588;10.176;2023-05-07T10:55:42;101997.75;;;14.23;63.62
46394;BME280;32099;53.588;10.176;2023-05-07T11:00:59;102004.47;;;14.03;63.54
46394;BME280;32099;53.588;10.176;2023-05-07T11:03:26;102006.56;;;13.93;64.63
46394;BME280;32099;53.588;10.176;2023-05-07T11:06:13;102005.53;;;14.02;64.32
46394;BME280;32099;53.588;10.176;2023-05-07T11:11:16;102000.72;;;14.04;64.52
46394;BME280;32099;53.588;10.176;2023-05-07T11:13:42;101995.75;;;14.00;63.06
46394;BME280;32099;53.588;10.176;2023-05-07T11:16:17;101993.53;;;13.95;63.92
46394;BME280;32099;53.588;10.176;2023-05-07T11:18:50;101992.34;;;13.98;63.56
46394;BME280;32099;53.588;10.176;2023-05-07T11:21:35;102000.88;;;14.11;63.92
46394;BME280;32099;53.588;10.176;2023-05-07T11:24:02;101994.84;;;14.16;61.99
46394;BME280;32099;53.588;10.176;2023-05-07T11:26:30;101997.44;;;14.17;64.26
46394;BME280;32099;53.588;10.176;2023-05-07T11:28:56;101998.38;;;14.41;63.27
46394;BME280;32099;53.588;10.176;2023-05-07T11:31:24;101995.25;;;14.53;61.35
46394;BME280;32099;53.588;10.176;2023-05-07T11:33:51;101997.09;;;14.60;62.20
46394;BME280;32099;53.588;10.176;2023-05-07T11:36:17;101983.72;;;14.57;62.53
46394;BME280;32099;53.588;10.176;2023-05-07T11:38:44;101990.34;;;14.71;61.84
46394;BME280;32099;53.588;10.176;2023-05-07T11:41:10;101992.56;;;14.76;62.77
46394;BME280;32099;53.588;10.176;2023-05-07T11:43:35;101989.09;;;14.82;61.74
46394;BME280;32099;53.588;10.176;2023-05-07T11:46:10;101981.78;;;14.98;62.73
46394;BME280;32099;53.588;10.176;2023-05-07T11:48:36;101982.72;;;15.13;60.74
46394;BME280;32099;53.588;10.176;2023-05-07T11:51:03;101985.38;;;15.21;61.62
46394;BME280;32099;53.588;10.176;2023-05-07T11:53:36;101988.13;;;15.21;61.26
46394;BME280;32099;53.588;10.176;2023-05-07T11:56:12;101976.91;;;15.31;59.95
46394;BME280;32099;53.588;10.176;2023-05-07T11:58:39;101971.31;;;15.39;60.01
46394;BME280;32099;53.588;10.176;2023-05-07T12:01:07;101970.09;;;15.42;60.45
46394;BME280;32099;53.588;10.176;2023-05-07T12:03:35;101975.56;;;15.65;60.89
46394;BME280;32099;53.588;10.176;2023-05-07T12:06:05;101970.75;;;15.82;59.33
46394;BME280;32099;53.588;10.176;2023-05-07T12:08:31;101971.91;;;15.88;59.60
46394;BME280;32099;53.588;10.176;2023-05-07T12:10:56;101975.25;;;15.98;59.98
46394;BME280;32099;53.588;10.176;2023-05-07T12:13:22;101975.63;;;16.10;59.96
46394;BME280;32099;53.588;10.176;2023-05-07T12:15:51;101964.69;;;16.17;59.22
46394;BME280;32099;53.588;10.176;2023-05-07T12:18:17;101963.66;;;16.33;59.66
46394;BME280;32099;53.588;10.176;2023-05-07T12:20:43;101966.59;;;16.31;58.91
46394;BME280;32099;53.588;10.176;2023-05-07T12:23:08;101965.84;;;16.38;59.04
46394;BME280;32099;53.588;10.176;2023-05-07T12:25:38;101966.31;;;16.41;59.00
46394;BME280;32099;53.588;10.176;2023-05-07T12:28:04;101973.97;;;16.46;58.58
46394;BME280;32099;53.588;10.176;2023-05-07T12:30:31;101969.72;;;16.43;58.64
46394;BME280;32099;53.588;10.176;2023-05-07T12:33:01;101967.34;;;16.40;58.23
46394;BME280;32099;53.588;10.176;2023-05-07T12:35:27;101974.66;;;16.48;58.23
46394;BME280;32099;53.588;10.176;2023-05-07T12:37:57;101977.94;;;16.58;57.05
46394;BME280;32099;53.588;10.176;2023-05-07T12:40:24;101976.91;;;16.59;58.66
46394;BME280;32099;53.588;10.176;2023-05-07T12:43:00;101962.16;;;16.67;57.64
46394;BME280;32099;53.588;10.176;2023-05-07T12:45:25;101961.97;;;16.69;56.90
46394;BME280;32099;53.588;10.176;2023-05-07T12:47:51;101972.00;;;16.76;57.31
46394;BME280;32099;53.588;10.176;2023-05-07T12:50:16;101983.28;;;16.81;55.73
46394;BME280;32099;53.588;10.176;2023-05-07T12:52:45;101982.06;;;16.69;56.56